sensor_id;sensor_type;location;lat;lon;timestamp;P1;durP1;ratioP1;P2;durP2;ratioP2
18732;SDS011;9495;51.210;2.934;2023-04-25T00:00:32;22.27;;;5.30;;
18732;SDS011;9495;51.210;2.934;2023-04-25T00:03:00;19.73;;;4.27;;
18732;SDS011;9495;51.210;2.934;2023-04-25T00:05:29;20.20;;;4.43;;
18732;SDS011;9495;51.210;2.934;2023-04-25T00:07:58;20.93;;;5.47;;
18732;SDS011;9495;51.210;2.934;2023-04-25T00:10:27;17.37;;;4.80;;
18732;SDS011;9495;51.210;2.934;2023-04-25T00:12:55;23.07;;;5.47;;
18732;SDS011;9495;51.210;2.934;2023-04-25T00:15:26;23.67;;;5.30;;
18732;SDS011;9495;51.210;2.934;2023-04-25T00:17:56;18.30;;;4.80;;
18732;SDS011;9495;51.210;2.934;2023-04-25T00:20:25;27.27;;;5.17;;
18732;SDS011;9495;51.210;2.934;2023-04-25T00:22:53;20.73;;;4.43;;
18732;SDS011;9495;51.210;2.934;2023-04-25T00:25:22;21.90;;;4.60;;
18732;SDS011;9495;51.210;2.934;2023-04-25T00:27:50;24.20;;;4.50;;
18732;SDS011;9495;51.210;2.934;2023-04-25T00:30:19;19.00;;;4.60;;
18732;SDS011;9495;51.210;2.934;2023-04-25T00:32:49;19.20;;;4.63;;
18732;SDS011;9495;51.210;2.934;2023-04-25T00:35:17;21.97;;;4.90;;
18732;SDS011;9495;51.210;2.934;2023-04-25T00:37:46;16.50;;;4.17;;
18732;SDS011;9495;51.210;2.934;2023-04-25T00:40:14;20.87;;;4.63;;
18732;SDS011;9495;51.210;2.934;2023-04-25T00:42:43;17.10;;;4.30;;
18732;SDS011;9495;51.210;2.934;2023-04-25T00:45:12;19.07;;;4.63;;
18732;SDS011;9495;51.210;2.934;2023-04-25T00:47:42;17.00;;;4.30;;
18732;SDS011;9495;51.210;2.934;2023-04-25T00:50:13;17.73;;;4.57;;
18732;SDS011;9495;51.210;2.934;2023-04-25T00:52:42;24.67;;;4.60;;
18732;SDS011;9495;51.210;2.934;2023-04-25T00:55:12;19.30;;;4.30;;
18732;SDS011;9495;51.210;2.934;2023-04-25T00:57:42;21.93;;;5.17;;
18732;SDS011;9495;51.210;2.934;2023-04-25T01:00:11;20.53;;;4.77;;
18732;SDS011;9495;51.210;2.934;2023-04-25T01:02:41;16.57;;;4.97;;
18732;SDS011;9495;51.210;2.934;2023-04-25T01:05:12;24.17;;;5.20;;
18732;SDS011;9495;51.210;2.934;2023-04-25T01:07:41;16.33;;;4.20;;
18732;SDS011;9495;51.210;2.934;2023-04-25T01:10:09;20.20;;;5.10;;
18732;SDS011;9495;51.210;2.934;2023-04-25T01:12:38;21.33;;;4.30;;
18732;SDS011;9495;51.210;2.934;2023-04-25T01:15:07;27.00;;;5.43;;
18732;SDS011;9495;51.210;2.934;2023-04-25T01:17:35;20.67;;;4.47;;
18732;SDS011;9495;51.210;2.934;2023-04-25T01:20:04;19.20;;;5.20;;
18732;SDS011;9495;51.210;2.934;2023-04-25T01:22:35;27.53;;;5.67;;
18732;SDS011;9495;51.210;2.934;2023-04-25T01:25:04;15.93;;;4.80;;
18732;SDS011;9495;51.210;2.934;2023-04-25T01:27:34;26.73;;;5.47;;
18732;SDS011;9495;51.210;2.934;2023-04-25T01:30:04;13.47;;;4.33;;
18732;SDS011;9495;51.210;2.934;2023-04-25T01:32:34;18.37;;;4.30;;
18732;SDS011;9495;51.210;2.934;2023-04-25T01:35:05;19.97;;;4.27;;
18732;SDS011;9495;51.210;2.934;2023-04-25T01:37:37;25.57;;;4.47;;
18732;SDS011;9495;51.210;2.934;2023-04-25T01:40:06;17.87;;;4.73;;
18732;SDS011;9495;51.210;2.934;2023-04-25T01:42:36;23.00;;;4.60;;
18732;SDS011;9495;51.210;2.934;2023-04-25T01:45:11;14.90;;;3.63;;
18732;SDS011;9495;51.210;2.934;2023-04-25T01:47:40;18.97;;;4.23;;
18732;SDS011;9495;51.210;2.934;2023-04-25T01:50:10;14.80;;;4.20;;
18732;SDS011;9495;51.210;2.934;2023-04-25T01:52:40;18.77;;;4.03;;
18732;SDS011;9495;51.210;2.934;2023-04-25T01:55:09;13.73;;;3.83;;
18732;SDS011;9495;51.210;2.934;2023-04-25T01:57:37;15.90;;;3.90;;
18732;SDS011;9495;51.210;2.934;2023-04-25T02:00:06;12.43;;;3.80;;
18732;SDS011;9495;51.210;2.934;2023-04-25T02:02:36;11.47;;;3.33;;
18732;SDS011;9495;51.210;2.934;2023-04-25T02:05:05;12.70;;;3.17;;
18732;SDS011;9495;51.210;2.934;2023-04-25T02:07:34;16.67;;;4.30;;
18732;SDS011;9495;51.210;2.934;2023-04-25T02:10:04;13.20;;;3.50;;
18732;SDS011;9495;51.210;2.934;2023-04-25T02:12:33;9.87;;;3.53;;
18732;SDS011;9495;51.210;2.934;2023-04-25T02:15:03;10.37;;;3.30;;
18732;SDS011;9495;51.210;2.934;2023-04-25T02:17:32;10.83;;;3.40;;
18732;SDS011;9495;51.210;2.934;2023-04-25T02:20:01;14.27;;;3.70;;
18732;SDS011;9495;51.210;2.934;2023-04-25T02:22:29;13.00;;;3.57;;
18732;SDS011;9495;51.210;2.934;2023-04-25T02:24:57;9.10;;;3.57;;
18732;SDS011;9495;51.210;2.934;2023-04-25T02:27:27;14.50;;;3.70;;
18732;SDS011;9495;51.210;2.934;2023-04-25T02:29:55;13.50;;;3.83;;
18732;SDS011;9495;51.210;2.934;2023-04-25T02:32:24;16.97;;;4.17;;
18732;SDS011;9495;51.210;2.934;2023-04-25T02:34:53;13.73;;;4.00;;
18732;SDS011;9495;51.210;2.934;2023-04-25T02:37:21;15.83;;;4.70;;
18732;SDS011;9495;51.210;2.934;2023-04-25T02:39:50;16.90;;;3.93;;
18732;SDS011;9495;51.210;2.934;2023-04-25T02:42:18;19.73;;;4.60;;
18732;SDS011;9495;51.210;2.934;2023-04-25T02:44:48;19.50;;;4.93;;
18732;SDS011;9495;51.210;2.934;2023-04-25T02:47:16;18.87;;;4.53;;
18732;SDS011;9495;51.210;2.934;2023-04-25T02:49:45;21.87;;;5.07;;
18732;SDS011;9495;51.210;2.934;2023-04-25T02:52:14;19.63;;;5.00;;
18732;SDS011;9495;51.210;2.934;2023-04-25T02:54:42;19.97;;;4.03;;
18732;SDS011;9495;51.210;2.934;2023-04-25T02:57:10;19.27;;;4.27;;
18732;SDS011;9495;51.210;2.934;2023-04-25T02:59:39;17.77;;;4.20;;
18732;SDS011;9495;51.210;2.934;2023-04-25T03:02:09;15.53;;;4.47;;
18732;SDS011;9495;51.210;2.934;2023-04-25T03:04:37;14.93;;;4.67;;
18732;SDS011;9495;51.210;2.934;2023-04-25T03:07:06;14.60;;;4.10;;
18732;SDS011;9495;51.210;2.934;2023-04-25T03:09:35;16.67;;;3.93;;
18732;SDS011;9495;51.210;2.934;2023-04-25T03:12:03;14.83;;;4.00;;
18732;SDS011;9495;51.210;2.934;2023-04-25T03:14:32;13.93;;;3.50;;
18732;SDS011;9495;51.210;2.934;2023-04-25T03:17:01;17.53;;;4.43;;
18732;SDS011;9495;51.210;2.934;2023-04-25T03:19:30;15.17;;;4.37;;
18732;SDS011;9495;51.210;2.934;2023-04-25T03:21:59;10.80;;;2.97;;
18732;SDS011;9495;51.210;2.934;2023-04-25T03:24:27;13.07;;;2.63;;
18732;SDS011;9495;51.210;2.934;2023-04-25T03:26:56;10.80;;;2.97;;
18732;SDS011;9495;51.210;2.934;2023-04-25T03:29:25;10.77;;;3.27;;
18732;SDS011;9495;51.210;2.934;2023-04-25T03:31:54;10.03;;;2.93;;
18732;SDS011;9495;51.210;2.934;2023-04-25T03:34:22;10.40;;;3.50;;
18732;SDS011;9495;51.210;2.934;2023-04-25T03:36:53;14.27;;;3.30;;
18732;SDS011;9495;51.210;2.934;2023-04-25T03:39:21;10.53;;;3.23;;
18732;SDS011;9495;51.210;2.934;2023-04-25T03:41:50;13.13;;;3.13;;
18732;SDS011;9495;51.210;2.934;2023-04-25T03:44:18;18.97;;;3.47;;
18732;SDS011;9495;51.210;2.934;2023-04-25T03:46:47;14.90;;;3.40;;
18732;SDS011;9495;51.210;2.934;2023-04-25T03:49:15;12.50;;;3.63;;
18732;SDS011;9495;51.210;2.934;2023-04-25T03:51:45;22.50;;;4.13;;
18732;SDS011;9495;51.210;2.934;2023-04-25T03:54:14;16.70;;;4.17;;
18732;SDS011;9495;51.210;2.934;2023-04-25T03:56:43;14.10;;;3.83;;
18732;SDS011;9495;51.210;2.934;2023-04-25T03:59:11;15.60;;;3.80;;
18732;SDS011;9495;51.210;2.934;2023-04-25T04:01:40;14.13;;;3.80;;
18732;SDS011;9495;51.210;2.934;2023-04-25T04:04:08;19.53;;;4.30;;
18732;SDS011;9495;51.210;2.934;2023-04-25T04:06:37;16.43;;;4.80;;
18732;SDS011;9495;51.210;2.934;2023-04-25T04:09:06;16.27;;;4.03;;
18732;SDS011;9495;51.210;2.934;2023-04-25T04:11:39;14.03;;;3.90;;
18732;SDS011;9495;51.210;2.934;2023-04-25T04:14:07;20.00;;;5.50;;
18732;SDS011;9495;51.210;2.934;2023-04-25T04:16:37;22.23;;;6.00;;
18732;SDS011;9495;51.210;2.934;2023-04-25T04:19:05;18.50;;;5.13;;
18732;SDS011;9495;51.210;2.934;2023-04-25T04:21:33;17.13;;;4.37;;
18732;SDS011;9495;51.210;2.934;2023-04-25T04:24:02;17.03;;;4.73;;
18732;SDS011;9495;51.210;2.934;2023-04-25T04:26:32;14.23;;;4.70;;
18732;SDS011;9495;51.210;2.934;2023-04-25T04:29:02;19.90;;;4.23;;
18732;SDS011;9495;51.210;2.934;2023-04-25T04:31:31;18.53;;;5.17;;
18732;SDS011;9495;51.210;2.934;2023-04-25T04:33:59;13.90;;;3.77;;
18732;SDS011;9495;51.210;2.934;2023-04-25T04:36:28;12.70;;;3.23;;
18732;SDS011;9495;51.210;2.934;2023-04-25T04:38:56;13.43;;;3.50;;
18732;SDS011;9495;51.210;2.934;2023-04-25T04:41:25;15.23;;;3.70;;
18732;SDS011;9495;51.210;2.934;2023-04-25T04:43:53;14.13;;;3.53;;
18732;SDS011;9495;51.210;2.934;2023-04-25T04:46:23;13.17;;;2.80;;
18732;SDS011;9495;51.210;2.934;2023-04-25T04:48:52;15.87;;;3.30;;
18732;SDS011;9495;51.210;2.934;2023-04-25T04:51:22;10.93;;;2.60;;
18732;SDS011;9495;51.210;2.934;2023-04-25T04:53:51;16.47;;;3.00;;
18732;SDS011;9495;51.210;2.934;2023-04-25T04:56:24;8.93;;;2.63;;
18732;SDS011;9495;51.210;2.934;2023-04-25T04:58:53;13.53;;;3.00;;
18732;SDS011;9495;51.210;2.934;2023-04-25T05:01:21;13.40;;;2.90;;
18732;SDS011;9495;51.210;2.934;2023-04-25T05:03:51;9.37;;;2.70;;
18732;SDS011;9495;51.210;2.934;2023-04-25T05:06:20;9.93;;;2.50;;
18732;SDS011;9495;51.210;2.934;2023-04-25T05:08:49;9.37;;;2.67;;
18732;SDS011;9495;51.210;2.934;2023-04-25T05:11:17;12.30;;;2.80;;
18732;SDS011;9495;51.210;2.934;2023-04-25T05:13:46;14.27;;;3.10;;
18732;SDS011;9495;51.210;2.934;2023-04-25T05:16:15;11.00;;;2.60;;
18732;SDS011;9495;51.210;2.934;2023-04-25T05:18:43;15.80;;;3.33;;
18732;SDS011;9495;51.210;2.934;2023-04-25T05:21:13;15.77;;;3.17;;
18732;SDS011;9495;51.210;2.934;2023-04-25T05:23:42;17.47;;;3.33;;
18732;SDS011;9495;51.210;2.934;2023-04-25T05:26:10;20.67;;;3.30;;
18732;SDS011;9495;51.210;2.934;2023-04-25T05:28:41;14.13;;;2.90;;
18732;SDS011;9495;51.210;2.934;2023-04-25T05:31:09;19.93;;;3.70;;
18732;SDS011;9495;51.210;2.934;2023-04-25T05:33:38;13.73;;;3.17;;
18732;SDS011;9495;51.210;2.934;2023-04-25T05:36:07;14.30;;;3.07;;
18732;SDS011;9495;51.210;2.934;2023-04-25T05:38:37;10.57;;;3.10;;
18732;SDS011;9495;51.210;2.934;2023-04-25T05:41:05;16.73;;;3.10;;
18732;SDS011;9495;51.210;2.934;2023-04-25T05:43:33;9.47;;;2.10;;
18732;SDS011;9495;51.210;2.934;2023-04-25T05:46:02;10.67;;;2.77;;
18732;SDS011;9495;51.210;2.934;2023-04-25T05:48:31;9.20;;;2.53;;
18732;SDS011;9495;51.210;2.934;2023-04-25T05:50:59;12.60;;;3.20;;
18732;SDS011;9495;51.210;2.934;2023-04-25T05:53:27;9.63;;;2.23;;
18732;SDS011;9495;51.210;2.934;2023-04-25T05:55:57;12.97;;;2.60;;
18732;SDS011;9495;51.210;2.934;2023-04-25T05:58:26;11.03;;;2.40;;
18732;SDS011;9495;51.210;2.934;2023-04-25T06:00:54;11.47;;;3.20;;
18732;SDS011;9495;51.210;2.934;2023-04-25T06:03:22;10.30;;;2.30;;
18732;SDS011;9495;51.210;2.934;2023-04-25T06:05:51;9.30;;;2.13;;
18732;SDS011;9495;51.210;2.934;2023-04-25T06:08:20;15.37;;;2.67;;
18732;SDS011;9495;51.210;2.934;2023-04-25T06:10:49;12.23;;;2.33;;
18732;SDS011;9495;51.210;2.934;2023-04-25T06:13:18;12.27;;;2.80;;
18732;SDS011;9495;51.210;2.934;2023-04-25T06:15:47;8.30;;;2.20;;
18732;SDS011;9495;51.210;2.934;2023-04-25T06:18:16;9.40;;;2.60;;
18732;SDS011;9495;51.210;2.934;2023-04-25T06:20:44;10.97;;;2.00;;
18732;SDS011;9495;51.210;2.934;2023-04-25T06:23:12;10.70;;;2.40;;
18732;SDS011;9495;51.210;2.934;2023-04-25T06:25:41;12.60;;;2.40;;
18732;SDS011;9495;51.210;2.934;2023-04-25T06:28:09;10.50;;;3.10;;
18732;SDS011;9495;51.210;2.934;2023-04-25T06:30:39;13.30;;;2.73;;
18732;SDS011;9495;51.210;2.934;2023-04-25T06:33:08;11.40;;;2.67;;
18732;SDS011;9495;51.210;2.934;2023-04-25T06:35:36;8.43;;;1.80;;
18732;SDS011;9495;51.210;2.934;2023-04-25T06:38:05;15.97;;;2.87;;
18732;SDS011;9495;51.210;2.934;2023-04-25T06:40:33;13.23;;;2.40;;
18732;SDS011;9495;51.210;2.934;2023-04-25T06:43:02;11.57;;;2.27;;
18732;SDS011;9495;51.210;2.934;2023-04-25T06:45:31;10.67;;;2.37;;
18732;SDS011;9495;51.210;2.934;2023-04-25T06:48:00;8.03;;;2.30;;
18732;SDS011;9495;51.210;2.934;2023-04-25T06:50:29;5.27;;;1.70;;
18732;SDS011;9495;51.210;2.934;2023-04-25T06:52:57;12.97;;;2.20;;
18732;SDS011;9495;51.210;2.934;2023-04-25T06:55:27;14.00;;;2.43;;
18732;SDS011;9495;51.210;2.934;2023-04-25T06:57:56;14.83;;;2.47;;
18732;SDS011;9495;51.210;2.934;2023-04-25T07:00:25;9.23;;;2.10;;
18732;SDS011;9495;51.210;2.934;2023-04-25T07:02:55;7.63;;;2.47;;
18732;SDS011;9495;51.210;2.934;2023-04-25T07:05:25;10.67;;;2.20;;
18732;SDS011;9495;51.210;2.934;2023-04-25T07:07:53;11.80;;;2.20;;
18732;SDS011;9495;51.210;2.934;2023-04-25T07:10:22;8.10;;;1.80;;
18732;SDS011;9495;51.210;2.934;2023-04-25T07:12:50;10.43;;;2.45;;
18732;SDS011;9495;51.210;2.934;2023-04-25T07:15:19;9.33;;;2.13;;
18732;SDS011;9495;51.210;2.934;2023-04-25T07:17:47;7.43;;;1.90;;
18732;SDS011;9495;51.210;2.934;2023-04-25T07:20:16;8.57;;;1.90;;
18732;SDS011;9495;51.210;2.934;2023-04-25T07:22:45;5.00;;;1.70;;
18732;SDS011;9495;51.210;2.934;2023-04-25T07:25:14;6.83;;;2.17;;
18732;SDS011;9495;51.210;2.934;2023-04-25T07:27:42;7.27;;;1.60;;
18732;SDS011;9495;51.210;2.934;2023-04-25T07:30:11;8.37;;;1.83;;
18732;SDS011;9495;51.210;2.934;2023-04-25T07:32:40;5.57;;;1.60;;
18732;SDS011;9495;51.210;2.934;2023-04-25T07:35:08;8.17;;;1.90;;
18732;SDS011;9495;51.210;2.934;2023-04-25T07:37:37;9.33;;;2.10;;
18732;SDS011;9495;51.210;2.934;2023-04-25T07:40:07;7.07;;;2.00;;
18732;SDS011;9495;51.210;2.934;2023-04-25T07:42:37;9.20;;;1.90;;
18732;SDS011;9495;51.210;2.934;2023-04-25T07:45:06;9.00;;;2.07;;
18732;SDS011;9495;51.210;2.934;2023-04-25T07:47:35;8.03;;;2.20;;
18732;SDS011;9495;51.210;2.934;2023-04-25T07:50:05;11.57;;;2.03;;
18732;SDS011;9495;51.210;2.934;2023-04-25T07:52:34;8.33;;;2.10;;
18732;SDS011;9495;51.210;2.934;2023-04-25T07:55:02;9.73;;;2.13;;
18732;SDS011;9495;51.210;2.934;2023-04-25T07:57:33;7.10;;;1.57;;
18732;SDS011;9495;51.210;2.934;2023-04-25T08:00:02;5.07;;;1.53;;
18732;SDS011;9495;51.210;2.934;2023-04-25T08:02:35;7.07;;;1.70;;
18732;SDS011;9495;51.210;2.934;2023-04-25T08:05:04;4.43;;;1.87;;
18732;SDS011;9495;51.210;2.934;2023-04-25T08:07:34;10.13;;;1.73;;
18732;SDS011;9495;51.210;2.934;2023-04-25T08:10:03;4.27;;;1.30;;
18732;SDS011;9495;51.210;2.934;2023-04-25T08:12:34;9.80;;;1.87;;
18732;SDS011;9495;51.210;2.934;2023-04-25T08:15:03;6.70;;;1.73;;
18732;SDS011;9495;51.210;2.934;2023-04-25T08:17:33;6.07;;;1.70;;
18732;SDS011;9495;51.210;2.934;2023-04-25T08:20:02;9.63;;;1.73;;
18732;SDS011;9495;51.210;2.934;2023-04-25T08:22:32;9.70;;;1.73;;
18732;SDS011;9495;51.210;2.934;2023-04-25T08:25:01;5.83;;;1.90;;
18732;SDS011;9495;51.210;2.934;2023-04-25T08:27:30;8.43;;;1.90;;
18732;SDS011;9495;51.210;2.934;2023-04-25T08:29:59;8.53;;;2.10;;
18732;SDS011;9495;51.210;2.934;2023-04-25T08:32:29;8.50;;;1.97;;
18732;SDS011;9495;51.210;2.934;2023-04-25T08:34:57;4.90;;;1.40;;
18732;SDS011;9495;51.210;2.934;2023-04-25T08:37:26;8.53;;;1.63;;
18732;SDS011;9495;51.210;2.934;2023-04-25T08:39:54;8.27;;;1.60;;
18732;SDS011;9495;51.210;2.934;2023-04-25T08:42:24;6.50;;;1.40;;
18732;SDS011;9495;51.210;2.934;2023-04-25T08:44:54;6.53;;;1.40;;
18732;SDS011;9495;51.210;2.934;2023-04-25T08:47:24;8.73;;;1.90;;
18732;SDS011;9495;51.210;2.934;2023-04-25T08:49:55;9.27;;;1.87;;
18732;SDS011;9495;51.210;2.934;2023-04-25T08:52:24;10.30;;;3.20;;
18732;SDS011;9495;51.210;2.934;2023-04-25T08:54:57;7.30;;;1.93;;
18732;SDS011;9495;51.210;2.934;2023-04-25T08:57:28;10.60;;;1.83;;
18732;SDS011;9495;51.210;2.934;2023-04-25T08:59:57;9.27;;;1.53;;
18732;SDS011;9495;51.210;2.934;2023-04-25T09:02:29;9.03;;;2.40;;
18732;SDS011;9495;51.210;2.934;2023-04-25T09:04:57;8.43;;;2.27;;
18732;SDS011;9495;51.210;2.934;2023-04-25T09:07:26;14.37;;;2.40;;
18732;SDS011;9495;51.210;2.934;2023-04-25T09:09:55;5.67;;;1.90;;
18732;SDS011;9495;51.210;2.934;2023-04-25T09:12:25;3.83;;;1.30;;
18732;SDS011;9495;51.210;2.934;2023-04-25T09:15:01;3.83;;;1.30;;
18732;SDS011;9495;51.210;2.934;2023-04-25T09:17:34;8.80;;;1.50;;
18732;SDS011;9495;51.210;2.934;2023-04-25T09:20:07;5.47;;;1.77;;
18732;SDS011;9495;51.210;2.934;2023-04-25T09:22:37;7.67;;;1.50;;
18732;SDS011;9495;51.210;2.934;2023-04-25T09:25:09;8.17;;;1.60;;
18732;SDS011;9495;51.210;2.934;2023-04-25T09:27:49;4.87;;;1.47;;
18732;SDS011;9495;51.210;2.934;2023-04-25T09:30:18;7.47;;;1.80;;
18732;SDS011;9495;51.210;2.934;2023-04-25T09:32:58;8.53;;;1.53;;
18732;SDS011;9495;51.210;2.934;2023-04-25T09:35:36;7.03;;;1.57;;
18732;SDS011;9495;51.210;2.934;2023-04-25T09:38:08;5.97;;;1.40;;
18732;SDS011;9495;51.210;2.934;2023-04-25T09:40:39;6.60;;;1.33;;
18732;SDS011;9495;51.210;2.934;2023-04-25T09:43:12;8.97;;;1.73;;
18732;SDS011;9495;51.210;2.934;2023-04-25T09:45:47;5.97;;;1.17;;
18732;SDS011;9495;51.210;2.934;2023-04-25T09:48:20;5.80;;;1.23;;
18732;SDS011;9495;51.210;2.934;2023-04-25T09:50:57;10.53;;;1.40;;
18732;SDS011;9495;51.210;2.934;2023-04-25T09:53:32;6.30;;;1.30;;
18732;SDS011;9495;51.210;2.934;2023-04-25T09:56:02;8.93;;;1.53;;
18732;SDS011;9495;51.210;2.934;2023-04-25T09:58:33;7.73;;;2.10;;
18732;SDS011;9495;51.210;2.934;2023-04-25T10:01:02;6.17;;;1.63;;
18732;SDS011;9495;51.210;2.934;2023-04-25T10:03:33;5.30;;;1.50;;
18732;SDS011;9495;51.210;2.934;2023-04-25T10:06:04;6.50;;;1.10;;
18732;SDS011;9495;51.210;2.934;2023-04-25T10:08:38;4.53;;;1.37;;
18732;SDS011;9495;51.210;2.934;2023-04-25T10:11:07;6.83;;;1.63;;
18732;SDS011;9495;51.210;2.934;2023-04-25T10:13:36;11.53;;;1.70;;
18732;SDS011;9495;51.210;2.934;2023-04-25T10:16:05;8.60;;;1.53;;
18732;SDS011;9495;51.210;2.934;2023-04-25T10:18:34;9.47;;;1.50;;
18732;SDS011;9495;51.210;2.934;2023-04-25T10:21:04;3.77;;;0.87;;
18732;SDS011;9495;51.210;2.934;2023-04-25T10:23:33;4.23;;;1.53;;
18732;SDS011;9495;51.210;2.934;2023-04-25T10:26:04;6.33;;;1.73;;
18732;SDS011;9495;51.210;2.934;2023-04-25T10:31:23;7.73;;;1.57;;
18732;SDS011;9495;51.210;2.934;2023-04-25T10:33:54;9.90;;;1.37;;
18732;SDS011;9495;51.210;2.934;2023-04-25T10:36:23;3.90;;;1.20;;
18732;SDS011;9495;51.210;2.934;2023-04-25T10:38:53;7.67;;;1.33;;
18732;SDS011;9495;51.210;2.934;2023-04-25T10:41:21;5.63;;;1.53;;
18732;SDS011;9495;51.210;2.934;2023-04-25T10:43:50;6.90;;;1.63;;
18732;SDS011;9495;51.210;2.934;2023-04-25T10:46:28;5.00;;;1.27;;
18732;SDS011;9495;51.210;2.934;2023-04-25T10:49:00;4.13;;;1.43;;
18732;SDS011;9495;51.210;2.934;2023-04-25T10:51:30;11.10;;;1.70;;
18732;SDS011;9495;51.210;2.934;2023-04-25T10:54:19;4.30;;;1.60;;
18732;SDS011;9495;51.210;2.934;2023-04-25T10:56:52;4.30;;;1.57;;
18732;SDS011;9495;51.210;2.934;2023-04-25T10:59:21;8.00;;;1.70;;
18732;SDS011;9495;51.210;2.934;2023-04-25T11:01:53;6.73;;;1.80;;
18732;SDS011;9495;51.210;2.934;2023-04-25T11:04:23;6.50;;;2.00;;
18732;SDS011;9495;51.210;2.934;2023-04-25T11:07:07;4.27;;;1.47;;
18732;SDS011;9495;51.210;2.934;2023-04-25T11:09:40;9.07;;;2.00;;
18732;SDS011;9495;51.210;2.934;2023-04-25T11:12:09;9.60;;;1.53;;
18732;SDS011;9495;51.210;2.934;2023-04-25T11:14:42;6.50;;;1.70;;
18732;SDS011;9495;51.210;2.934;2023-04-25T11:17:10;7.47;;;1.67;;
18732;SDS011;9495;51.210;2.934;2023-04-25T11:19:40;6.50;;;2.10;;
18732;SDS011;9495;51.210;2.934;2023-04-25T11:22:09;6.80;;;1.80;;
18732;SDS011;9495;51.210;2.934;2023-04-25T11:24:39;6.10;;;2.10;;
18732;SDS011;9495;51.210;2.934;2023-04-25T11:27:08;6.63;;;1.80;;
18732;SDS011;9495;51.210;2.934;2023-04-25T11:29:37;6.00;;;1.80;;
18732;SDS011;9495;51.210;2.934;2023-04-25T11:32:05;9.33;;;1.73;;
18732;SDS011;9495;51.210;2.934;2023-04-25T11:34:34;7.13;;;1.83;;
18732;SDS011;9495;51.210;2.934;2023-04-25T11:37:04;6.60;;;1.80;;
18732;SDS011;9495;51.210;2.934;2023-04-25T11:39:33;5.57;;;1.40;;
18732;SDS011;9495;51.210;2.934;2023-04-25T11:42:01;6.87;;;1.80;;
18732;SDS011;9495;51.210;2.934;2023-04-25T11:44:39;6.60;;;1.50;;
18732;SDS011;9495;51.210;2.934;2023-04-25T11:47:08;5.20;;;1.37;;
18732;SDS011;9495;51.210;2.934;2023-04-25T11:49:36;4.07;;;1.57;;
18732;SDS011;9495;51.210;2.934;2023-04-25T11:52:07;8.83;;;2.20;;
18732;SDS011;9495;51.210;2.934;2023-04-25T11:54:36;6.67;;;1.43;;
18732;SDS011;9495;51.210;2.934;2023-04-25T11:57:04;5.60;;;2.00;;
18732;SDS011;9495;51.210;2.934;2023-04-25T11:59:33;4.83;;;1.83;;
18732;SDS011;9495;51.210;2.934;2023-04-25T12:02:01;6.80;;;1.58;;
18732;SDS011;9495;51.210;2.934;2023-04-25T12:04:30;9.37;;;1.87;;
18732;SDS011;9495;51.210;2.934;2023-04-25T12:07:00;4.20;;;1.30;;
18732;SDS011;9495;51.210;2.934;2023-04-25T12:09:31;4.27;;;1.57;;
18732;SDS011;9495;51.210;2.934;2023-04-25T12:12:00;7.97;;;2.03;;
18732;SDS011;9495;51.210;2.934;2023-04-25T12:14:30;8.63;;;2.13;;
18732;SDS011;9495;51.210;2.934;2023-04-25T12:17:00;5.33;;;1.50;;
18732;SDS011;9495;51.210;2.934;2023-04-25T12:19:33;12.93;;;2.13;;
18732;SDS011;9495;51.210;2.934;2023-04-25T12:22:02;4.40;;;1.30;;
18732;SDS011;9495;51.210;2.934;2023-04-25T12:24:47;8.40;;;1.57;;
18732;SDS011;9495;51.210;2.934;2023-04-25T12:27:16;7.23;;;1.70;;
18732;SDS011;9495;51.210;2.934;2023-04-25T12:29:50;8.33;;;1.33;;
18732;SDS011;9495;51.210;2.934;2023-04-25T12:32:19;4.40;;;1.40;;
18732;SDS011;9495;51.210;2.934;2023-04-25T12:34:48;6.30;;;1.63;;
18732;SDS011;9495;51.210;2.934;2023-04-25T12:37:16;7.17;;;1.97;;
18732;SDS011;9495;51.210;2.934;2023-04-25T12:39:46;4.03;;;1.37;;
18732;SDS011;9495;51.210;2.934;2023-04-25T12:42:14;6.67;;;1.63;;
18732;SDS011;9495;51.210;2.934;2023-04-25T12:44:43;7.30;;;1.77;;
18732;SDS011;9495;51.210;2.934;2023-04-25T12:47:12;4.77;;;1.50;;
18732;SDS011;9495;51.210;2.934;2023-04-25T12:49:41;5.13;;;1.40;;
18732;SDS011;9495;51.210;2.934;2023-04-25T12:52:10;7.80;;;1.60;;
18732;SDS011;9495;51.210;2.934;2023-04-25T12:54:38;6.70;;;1.43;;
18732;SDS011;9495;51.210;2.934;2023-04-25T12:57:08;6.73;;;1.53;;
18732;SDS011;9495;51.210;2.934;2023-04-25T12:59:37;10.23;;;1.73;;
18732;SDS011;9495;51.210;2.934;2023-04-25T13:02:06;9.23;;;1.60;;
18732;SDS011;9495;51.210;2.934;2023-04-25T13:04:34;8.23;;;1.83;;
18732;SDS011;9495;51.210;2.934;2023-04-25T13:07:03;9.50;;;1.67;;
18732;SDS011;9495;51.210;2.934;2023-04-25T13:09:31;8.70;;;1.90;;
18732;SDS011;9495;51.210;2.934;2023-04-25T13:12:00;8.27;;;1.47;;
18732;SDS011;9495;51.210;2.934;2023-04-25T13:14:30;8.77;;;1.50;;
18732;SDS011;9495;51.210;2.934;2023-04-25T13:16:58;8.00;;;1.80;;
18732;SDS011;9495;51.210;2.934;2023-04-25T13:19:27;5.50;;;1.43;;
18732;SDS011;9495;51.210;2.934;2023-04-25T13:21:55;7.60;;;1.60;;
18732;SDS011;9495;51.210;2.934;2023-04-25T13:24:25;8.37;;;1.50;;
18732;SDS011;9495;51.210;2.934;2023-04-25T13:26:53;11.43;;;1.83;;
18732;SDS011;9495;51.210;2.934;2023-04-25T13:29:22;6.53;;;1.30;;
18732;SDS011;9495;51.210;2.934;2023-04-25T13:31:52;10.70;;;1.53;;
18732;SDS011;9495;51.210;2.934;2023-04-25T13:34:21;4.63;;;0.93;;
18732;SDS011;9495;51.210;2.934;2023-04-25T13:36:50;8.43;;;1.73;;
18732;SDS011;9495;51.210;2.934;2023-04-25T13:39:18;10.00;;;1.63;;
18732;SDS011;9495;51.210;2.934;2023-04-25T13:41:47;8.70;;;1.97;;
18732;SDS011;9495;51.210;2.934;2023-04-25T13:44:16;7.47;;;1.77;;
18732;SDS011;9495;51.210;2.934;2023-04-25T13:46:44;7.37;;;2.00;;
18732;SDS011;9495;51.210;2.934;2023-04-25T13:49:14;8.23;;;1.60;;
18732;SDS011;9495;51.210;2.934;2023-04-25T13:51:43;6.90;;;1.70;;
18732;SDS011;9495;51.210;2.934;2023-04-25T13:54:11;7.93;;;1.33;;
18732;SDS011;9495;51.210;2.934;2023-04-25T13:56:40;5.73;;;1.60;;
18732;SDS011;9495;51.210;2.934;2023-04-25T13:59:09;3.83;;;1.27;;
18732;SDS011;9495;51.210;2.934;2023-04-25T14:01:37;6.50;;;1.57;;
18732;SDS011;9495;51.210;2.934;2023-04-25T14:04:06;9.27;;;1.83;;
18732;SDS011;9495;51.210;2.934;2023-04-25T14:06:36;7.30;;;1.67;;
18732;SDS011;9495;51.210;2.934;2023-04-25T14:09:05;10.07;;;1.83;;
18732;SDS011;9495;51.210;2.934;2023-04-25T14:11:36;7.93;;;2.13;;
18732;SDS011;9495;51.210;2.934;2023-04-25T14:14:04;11.87;;;1.73;;
18732;SDS011;9495;51.210;2.934;2023-04-25T14:16:33;4.13;;;1.70;;
18732;SDS011;9495;51.210;2.934;2023-04-25T14:19:02;10.23;;;2.23;;
18732;SDS011;9495;51.210;2.934;2023-04-25T14:21:30;6.27;;;1.70;;
18732;SDS011;9495;51.210;2.934;2023-04-25T14:24:01;3.67;;;1.10;;
18732;SDS011;9495;51.210;2.934;2023-04-25T14:26:29;9.27;;;1.90;;
18732;SDS011;9495;51.210;2.934;2023-04-25T14:28:58;6.00;;;1.60;;
18732;SDS011;9495;51.210;2.934;2023-04-25T14:31:26;5.27;;;1.43;;
18732;SDS011;9495;51.210;2.934;2023-04-25T14:33:55;12.20;;;1.63;;
18732;SDS011;9495;51.210;2.934;2023-04-25T14:36:25;7.77;;;1.70;;
18732;SDS011;9495;51.210;2.934;2023-04-25T14:38:55;7.73;;;1.90;;
18732;SDS011;9495;51.210;2.934;2023-04-25T14:41:25;6.43;;;1.60;;
18732;SDS011;9495;51.210;2.934;2023-04-25T14:43:54;7.47;;;1.90;;
18732;SDS011;9495;51.210;2.934;2023-04-25T14:46:23;4.60;;;1.90;;
18732;SDS011;9495;51.210;2.934;2023-04-25T14:48:52;13.67;;;2.17;;
18732;SDS011;9495;51.210;2.934;2023-04-25T14:51:22;6.73;;;1.90;;
18732;SDS011;9495;51.210;2.934;2023-04-25T14:53:50;8.83;;;2.00;;
18732;SDS011;9495;51.210;2.934;2023-04-25T14:56:19;8.97;;;2.43;;
18732;SDS011;9495;51.210;2.934;2023-04-25T14:58:49;11.63;;;2.40;;
18732;SDS011;9495;51.210;2.934;2023-04-25T15:01:17;8.63;;;1.40;;
18732;SDS011;9495;51.210;2.934;2023-04-25T15:03:48;9.27;;;2.10;;
18732;SDS011;9495;51.210;2.934;2023-04-25T15:06:18;6.37;;;1.53;;
18732;SDS011;9495;51.210;2.934;2023-04-25T15:08:46;8.90;;;2.17;;
18732;SDS011;9495;51.210;2.934;2023-04-25T15:11:14;6.47;;;1.70;;